Time;durP1;ratioP1;P1;durP2;ratioP2;P2;SDS_P1;SDS_P2;PMS_P1;PMS_P2;Temp;Humidity;BMP_temperature;BMP_pressure;BME280_temperature;BME280_humidity;BME280_pressure;Samples;Min_cycle;Max_cycle;Signal;HPM_P1;HPM_P2
2022/04/18 00:01:01;;;;;;;7.85;2.35;;;21.50;71.50;;;;;;4178043;28;20143;-57
2022/04/18 00:03:04;;;;;;;3.53;1.60;;;21.50;71.60;;;;;;4176627;28;20059;-58
2022/04/18 00:05:06;;;;;;;;;;;21.50;71.60;;;;;;4179949;28;20167;-61
2022/04/18 00:07:10;;;;;;;9.55;1.85;;;21.50;71.60;;;;;;4176526;28;20289;-62
2022/04/18 00:09:12;;;;;;;5.43;1.83;;;21.50;71.70;;;;;;4168649;28;20101;-61
2022/04/18 00:11:14;;;;;;;9.95;2.40;;;21.50;71.70;;;;;;4180364;28;20101;-62
2022/04/18 00:13:16;;;;;;;4.13;1.50;;;21.50;71.70;;;;;;4190622;28;20052;-62
2022/04/18 00:15:18;;;;;;;3.72;1.73;;;21.50;71.70;;;;;;4175569;28;20075;-60
2022/04/18 00:17:20;;;;;;;2.58;1.65;;;21.60;71.70;;;;;;4176238;28;20063;-63
2022/04/18 00:19:23;;;;;;;4.85;1.58;;;21.50;71.70;;;;;;4180137;28;20092;-63
2022/04/18 00:21:25;;;;;;;2.83;1.60;;;21.50;71.80;;;;;;4175293;28;20531;-61
2022/04/18 00:23:28;;;;;;;4.80;1.40;;;21.50;71.90;;;;;;4179072;28;20048;-63
2022/04/18 00:25:30;;;;;;;17.27;2.45;;;21.50;71.90;;;;;;4178178;28;20209;-62
2022/04/18 00:27:32;;;;;;;3.60;1.10;;;21.60;72.00;;;;;;4186660;28;20045;-62
2022/04/18 00:29:34;;;;;;;5.78;1.85;;;21.60;71.40;;;;;;4185865;28;20080;-64
2022/04/18 00:31:36;;;;;;;3.78;2.13;;;21.60;71.00;;;;;;4175560;28;20081;-61
2022/04/18 00:33:39;;;;;;;4.57;2.27;;;21.60;71.20;;;;;;4171599;28;21069;-62
2022/04/18 00:35:41;;;;;;;3.30;2.20;;;21.60;71.30;;;;;;4174244;28;20469;-61
2022/04/18 00:37:43;;;;;;;12.32;2.38;;;21.60;71.50;;;;;;4175722;28;20315;-62
2022/04/18 00:39:45;;;;;;;4.32;1.98;;;21.60;71.40;;;;;;4176615;28;20167;-62
2022/04/18 00:41:47;;;;;;;4.70;1.92;;;21.60;71.50;;;;;;4177066;28;20053;-63
2022/04/18 00:43:51;;;;;;;7.72;1.83;;;21.70;71.60;;;;;;4176592;28;20162;-62
2022/04/18 00:45:52;;;;;;;;;;;21.70;71.50;;;;;;4178624;28;20049;-62
2022/04/18 00:47:54;;;;;;;3.30;2.03;;;21.70;71.50;;;;;;4176546;28;19998;-63
2022/04/18 00:49:57;;;;;;;5.50;2.15;;;21.70;71.60;;;;;;4176952;28;20054;-61
2022/04/18 00:52:01;;;;;;;11.93;2.08;;;21.70;71.60;;;;;;4181077;28;20048;-61
2022/04/18 00:54:03;;;;;;;2.72;1.70;;;21.70;71.20;;;;;;4176410;28;20084;-61
2022/04/18 00:56:12;;;;;;;3.63;1.25;;;21.70;71.00;;;;;;4186202;28;20421;-61
2022/04/18 00:58:15;;;;;;;3.28;1.70;;;21.70;70.60;;;;;;4170904;28;20808;-60
2022/04/18 01:00:17;;;;;;;;;;;21.70;70.40;;;;;;4185523;28;20135;-61
2022/04/18 01:02:19;;;;;;;3.00;1.67;;;21.70;70.40;;;;;;4195378;28;19955;-60
2022/04/18 01:04:22;;;;;;;2.35;1.55;;;21.70;70.30;;;;;;4188971;28;20781;-61
2022/04/18 01:06:25;;;;;;;6.72;1.73;;;21.70;70.20;;;;;;4171285;28;20090;-60
2022/04/18 01:08:29;;;;;;;5.50;1.70;;;21.70;70.10;;;;;;4187344;28;20734;-61
2022/04/18 01:10:31;;;;;;;3.17;1.80;;;21.70;70.20;;;;;;4185069;28;20135;-64
2022/04/18 01:12:34;;;;;;;2.80;1.83;;;21.70;70.40;;;;;;4167282;28;20051;-65
2022/04/18 01:14:36;;;;;;;2.50;1.60;;;21.70;70.60;;;;;;4183539;28;20049;-63
2022/04/18 01:16:38;;;;;;;3.13;1.88;;;21.70;70.70;;;;;;4183115;28;20147;-63
2022/04/18 01:18:41;;;;;;;8.23;1.77;;;21.80;70.80;;;;;;4170873;28;20403;-63
2022/04/18 01:20:44;;;;;;;2.55;1.58;;;21.80;71.00;;;;;;4175128;28;20052;-62
2022/04/18 01:22:49;;;;;;;2.35;1.20;;;21.80;71.00;;;;;;4171867;28;20568;-62
2022/04/18 01:29:32;;;;;;;8.32;1.80;;;21.80;71.50;;;;;;4182314;28;20460;-58
2022/04/18 01:31:37;;;;;;;6.70;1.75;;;21.90;71.70;;;;;;4168956;28;20064;-57
2022/04/18 01:33:40;;;;;;;5.68;1.80;;;21.90;71.80;;;;;;4173794;28;20056;-59
2022/04/18 01:35:42;;;;;;;6.03;1.63;;;21.90;72.00;;;;;;4169431;28;20052;-58
2022/04/18 01:37:44;;;;;;;5.00;1.60;;;22.00;72.50;;;;;;4172773;28;20586;-57
2022/04/18 01:39:46;;;;;;;6.75;1.60;;;22.10;71.50;;;;;;4170747;28;20095;-59
2022/04/18 01:41:49;;;;;;;5.25;1.58;;;22.10;71.10;;;;;;4172050;28;20414;-59
2022/04/18 01:43:51;;;;;;;13.13;1.92;;;22.10;70.80;;;;;;4171821;28;20143;-56
2022/04/18 01:45:53;;;;;;;3.80;1.60;;;22.10;70.40;;;;;;4136510;28;20164;-56
2022/04/18 01:47:55;;;;;;;3.58;1.90;;;22.10;69.90;;;;;;4167194;28;21138;-58
2022/04/18 01:49:58;;;;;;;2.70;1.35;;;22.10;69.80;;;;;;4170737;28;20060;-56
2022/04/18 01:52:00;;;;;;;1.67;1.40;;;22.10;69.60;;;;;;4169031;28;20052;-56
2022/04/18 01:54:02;;;;;;;5.32;1.75;;;22.10;69.30;;;;;;4166018;28;20075;-54
2022/04/18 01:56:05;;;;;;;3.15;1.50;;;22.10;69.00;;;;;;4170580;28;20474;-55
2022/04/18 01:58:08;;;;;;;1.73;1.40;;;22.10;68.80;;;;;;4152978;28;21087;-54
2022/04/18 02:00:11;;;;;;;2.75;1.50;;;22.20;68.50;;;;;;4170962;28;20164;-54
2022/04/18 02:02:13;;;;;;;2.42;1.52;;;22.20;68.30;;;;;;4170477;28;20569;-54
2022/04/18 02:04:16;;;;;;;2.00;1.60;;;22.20;68.20;;;;;;4153090;28;20193;-54
2022/04/18 02:06:18;;;;;;;2.37;1.53;;;22.30;68.00;;;;;;4153048;28;20638;-56
2022/04/18 02:08:22;;;;;;;1.98;1.45;;;22.20;67.60;;;;;;4168981;28;20735;-51
2022/04/18 02:10:23;;;;;;;;;;;22.20;67.50;;;;;;4169907;28;20056;-50
2022/04/18 02:12:25;;;;;;;2.55;1.35;;;22.30;67.20;;;;;;4168343;28;19924;-52
2022/04/18 02:14:28;;;;;;;2.03;1.70;;;22.30;67.10;;;;;;4144711;28;20052;-56
2022/04/18 02:16:30;;;;;;;2.00;1.60;;;22.30;66.90;;;;;;4169510;28;20127;-55
2022/04/18 02:18:32;;;;;;;1.92;1.35;;;22.30;66.60;;;;;;4166166;28;20074;-51
2022/04/18 02:20:34;;;;;;;2.45;1.20;;;22.40;66.40;;;;;;4176578;28;20551;-56
2022/04/18 02:22:37;;;;;;;1.60;1.30;;;22.40;66.50;;;;;;4164527;28;20094;-59
2022/04/18 02:24:40;;;;;;;2.30;1.30;;;22.40;66.10;;;;;;4151554;28;20045;-55
2022/04/18 02:26:42;;;;;;;;;;;22.40;66.10;;;;;;4156475;28;20576;-50
2022/04/18 02:28:45;;;;;;;5.80;2.28;;;22.40;66.10;;;;;;4176815;28;20713;-53
2022/04/18 02:30:47;;;;;;;8.60;3.67;;;22.50;66.60;;;;;;4168063;28;20045;-52
2022/04/18 02:32:50;;;;;;;10.07;4.05;;;22.50;66.90;;;;;;4165850;28;20498;-53
2022/04/18 02:34:52;;;;;;;13.68;6.82;;;22.50;67.10;;;;;;4167099;28;20612;-55
2022/04/18 02:36:54;;;;;;;12.90;7.03;;;22.50;67.50;;;;;;4179562;28;20048;-57
2022/04/18 02:38:56;;;;;;;19.92;9.13;;;22.60;67.70;;;;;;4165437;28;20067;-56
2022/04/18 02:40:58;;;;;;;17.10;7.88;;;22.60;67.80;;;;;;4181413;28;20048;-57
2022/04/18 02:43:01;;;;;;;14.82;7.95;;;22.60;67.90;;;;;;4179175;28;20163;-54
2022/04/18 02:45:04;;;;;;;15.10;7.15;;;22.70;67.90;;;;;;4165899;28;20056;-54
2022/04/18 02:47:06;;;;;;;17.70;7.15;;;22.70;67.90;;;;;;4146221;28;20053;-56
2022/04/18 02:49:08;;;;;;;14.52;6.15;;;22.70;67.90;;;;;;4163700;28;20056;-51
2022/04/18 02:51:11;;;;;;;11.77;5.75;;;22.70;67.90;;;;;;4176404;28;20048;-52
2022/04/18 02:53:14;;;;;;;13.65;6.40;;;22.70;67.90;;;;;;4172810;28;20064;-53
2022/04/18 02:55:16;;;;;;;13.05;5.78;;;22.70;67.70;;;;;;4173422;28;20057;-53
2022/04/18 02:57:18;;;;;;;11.13;4.87;;;22.80;67.80;;;;;;4156051;28;20061;-53
2022/04/18 02:59:20;;;;;;;11.32;4.80;;;22.80;67.60;;;;;;4203745;28;20051;-51
2022/04/18 03:01:23;;;;;;;7.20;4.35;;;22.80;67.50;;;;;;4178233;28;20181;-54
2022/04/18 03:03:25;;;;;;;10.70;4.15;;;22.90;67.30;;;;;;4163377;28;20414;-51
2022/04/18 03:05:27;;;;;;;9.70;3.63;;;22.90;67.20;;;;;;4180027;28;20052;-55
2022/04/18 03:07:29;;;;;;;8.13;3.60;;;22.90;67.20;;;;;;4187622;28;20080;-54
2022/04/18 03:09:32;;;;;;;8.60;3.78;;;22.90;67.20;;;;;;4187631;28;20495;-51
2022/04/18 03:11:34;;;;;;;8.98;3.97;;;23.00;67.20;;;;;;4161423;28;20056;-54
2022/04/18 03:13:37;;;;;;;43.15;12.73;;;23.00;66.90;;;;;;4171900;28;20060;-53
2022/04/18 03:15:40;;;;;;;47.97;14.48;;;23.00;66.70;;;;;;4180702;28;20040;-56
2022/04/18 03:17:42;;;;;;;119.47;33.65;;;23.10;66.90;;;;;;4169648;28;20468;-54
2022/04/18 03:19:44;;;;;;;172.20;44.90;;;23.10;66.90;;;;;;4181201;28;20044;-51
2022/04/18 03:21:47;;;;;;;189.77;52.33;;;23.20;66.90;;;;;;4160576;28;20414;-50
2022/04/18 03:23:49;;;;;;;185.65;50.50;;;23.20;66.90;;;;;;4150665;28;20452;-55
2022/04/18 03:25:51;;;;;;;207.75;53.55;;;23.20;66.80;;;;;;4184236;28;20054;-54
2022/04/18 03:27:54;;;;;;;185.77;49.50;;;23.20;66.90;;;;;;4176597;28;20263;-52
2022/04/18 03:29:56;;;;;;;175.93;48.97;;;23.30;67.00;;;;;;4179616;28;20515;-53
2022/04/18 03:31:58;;;;;;;162.10;45.05;;;23.30;67.00;;;;;;4187327;28;20044;-51
2022/04/18 03:34:00;;;;;;;160.50;43.28;;;23.30;67.10;;;;;;4164089;28;20786;-56
2022/04/18 03:40:44;;;;;;;112.57;33.25;;;23.40;66.30;;;;;;4190240;28;20075;-54
2022/04/18 03:42:46;;;;;;;95.05;28.80;;;23.40;66.20;;;;;;4172774;28;20867;-55
2022/04/18 03:44:49;;;;;;;101.93;27.65;;;23.50;65.90;;;;;;4180422;28;20781;-54
2022/04/18 03:46:51;;;;;;;73.43;25.73;;;23.50;65.70;;;;;;4177779;28;20057;-53
2022/04/18 03:48:54;;;;;;;67.70;20.30;;;23.50;65.60;;;;;;4190483;28;20085;-55
2022/04/18 03:50:57;;;;;;;67.57;20.45;;;23.60;65.60;;;;;;4190920;28;20056;-56
2022/04/18 03:52:59;;;;;;;53.13;17.42;;;23.60;65.90;;;;;;4176357;28;20254;-52
2022/04/18 03:55:01;;;;;;;54.28;15.30;;;23.60;65.60;;;;;;4174667;28;20073;-48
2022/04/18 03:57:04;;;;;;;49.15;15.35;;;23.60;65.30;;;;;;4159951;28;20084;-55
2022/04/18 03:59:06;;;;;;;35.63;13.13;;;23.70;65.40;;;;;;4188076;28;20131;-50
2022/04/18 04:01:08;;;;;;;42.13;12.23;;;23.70;65.40;;;;;;4175061;28;20047;-52
2022/04/18 04:03:11;;;;;;;26.63;10.13;;;23.70;65.90;;;;;;4159739;28;20493;-56
2022/04/18 04:05:13;;;;;;;;;;;23.80;65.10;;;;;;4155990;28;20106;-55
2022/04/18 04:07:15;;;;;;;28.88;9.60;;;23.80;65.30;;;;;;4177490;28;19935;-56
2022/04/18 04:09:17;;;;;;;26.38;8.75;;;23.80;65.10;;;;;;4176318;28;20471;-54
2022/04/18 04:11:19;;;;;;;21.40;8.07;;;23.90;65.10;;;;;;4176815;28;20412;-54
2022/04/18 04:13:22;;;;;;;22.98;8.52;;;23.90;65.00;;;;;;4177283;28;20044;-55
2022/04/18 04:15:25;;;;;;;21.85;7.38;;;23.90;65.00;;;;;;4171568;28;20048;-56
2022/04/18 04:17:28;;;;;;;17.65;7.00;;;24.00;65.00;;;;;;4154003;28;20055;-56
2022/04/18 04:19:32;;;;;;;17.60;6.57;;;24.00;65.10;;;;;;4177998;28;20084;-53
2022/04/18 04:21:37;;;;;;;15.00;5.80;;;24.00;65.00;;;;;;4177779;28;20056;-53
2022/04/18 04:23:39;;;;;;;15.98;6.07;;;24.10;65.00;;;;;;4177429;28;20056;-55
2022/04/18 04:25:42;;;;;;;14.63;5.63;;;24.20;64.90;;;;;;4179879;28;20405;-56
2022/04/18 04:27:44;;;;;;;12.07;5.55;;;24.20;64.80;;;;;;4179769;28;20156;-53
2022/04/18 04:29:46;;;;;;;12.60;4.60;;;24.30;64.80;;;;;;4179150;28;20407;-55
2022/04/18 04:31:48;;;;;;;10.77;3.92;;;24.40;64.70;;;;;;4178358;28;20048;-56
2022/04/18 04:33:54;;;;;;;10.80;4.43;;;24.40;64.50;;;;;;4178079;28;20562;-52
2022/04/18 04:35:58;;;;;;;10.70;3.72;;;24.50;64.50;;;;;;4165618;28;20053;-54
2022/04/18 04:38:00;;;;;;;10.13;3.67;;;24.50;64.30;;;;;;4177324;28;20163;-55
2022/04/18 04:40:03;;;;;;;9.00;3.88;;;24.60;64.40;;;;;;4180060;28;20110;-53
2022/04/18 04:42:05;;;;;;;7.63;3.55;;;24.60;64.30;;;;;;4182761;28;20731;-56
2022/04/18 04:44:09;;;;;;;7.80;3.03;;;24.60;64.20;;;;;;4178314;28;20442;-53
2022/04/18 04:46:11;;;;;;;7.03;3.10;;;24.70;64.20;;;;;;4166581;28;20421;-57
2022/04/18 04:48:14;;;;;;;6.85;2.85;;;24.70;64.10;;;;;;4177611;28;20063;-54
2022/04/18 04:50:16;;;;;;;7.35;2.92;;;24.80;64.00;;;;;;4176745;28;20143;-52
2022/04/18 04:52:19;;;;;;;5.30;2.58;;;24.80;64.00;;;;;;4184742;28;20056;-55
2022/04/18 04:54:22;;;;;;;5.95;2.80;;;24.80;63.90;;;;;;4184478;28;20734;-52
2022/04/18 04:56:25;;;;;;;5.18;2.65;;;24.90;63.90;;;;;;4181062;28;20052;-54
2022/04/18 04:58:27;;;;;;;5.40;2.58;;;24.90;63.80;;;;;;4175763;28;20058;-50
2022/04/18 05:00:29;;;;;;;4.47;2.30;;;25.00;63.80;;;;;;4184355;28;20036;-50
2022/04/18 05:02:33;;;;;;;5.72;2.20;;;25.00;63.80;;;;;;4194263;28;20056;-56
2022/04/18 05:04:35;;;;;;;4.57;2.03;;;25.10;63.80;;;;;;4197406;28;20055;-55
2022/04/18 05:06:37;;;;;;;4.78;2.28;;;25.10;63.70;;;;;;4171264;28;20759;-53
2022/04/18 05:08:41;;;;;;;4.30;2.20;;;25.10;63.60;;;;;;4190400;28;20482;-53
2022/04/18 05:10:43;;;;;;;3.55;1.73;;;25.20;63.50;;;;;;4176555;28;20054;-50
2022/04/18 05:12:46;;;;;;;5.78;2.50;;;25.20;63.50;;;;;;4186836;28;20912;-55
2022/04/18 05:14:48;;;;;;;7.10;2.50;;;25.30;63.50;;;;;;4184983;28;20052;-53
2022/04/18 05:16:50;;;;;;;2.85;1.70;;;25.30;63.40;;;;;;4190407;28;20487;-58
2022/04/18 05:18:53;;;;;;;3.08;1.98;;;25.30;63.40;;;;;;4197206;28;20119;-56
2022/04/18 05:20:55;;;;;;;4.05;2.08;;;25.30;63.40;;;;;;4178596;28;20045;-55
2022/04/18 05:22:57;;;;;;;5.90;2.40;;;25.40;63.80;;;;;;4176444;28;20127;-58
2022/04/18 05:24:59;;;;;;;3.80;1.98;;;25.40;63.80;;;;;;4178027;28;20091;-53
2022/04/18 05:27:02;;;;;;;4.80;1.92;;;25.40;63.80;;;;;;4179739;28;20080;-55
2022/04/18 05:29:04;;;;;;;4.13;1.77;;;25.40;63.90;;;;;;4193323;28;20218;-56
2022/04/18 05:31:06;;;;;;;4.72;2.22;;;25.40;63.80;;;;;;4183734;28;20066;-57
2022/04/18 05:33:08;;;;;;;5.53;2.03;;;25.50;64.20;;;;;;4179787;28;20048;-57
2022/04/18 05:35:10;;;;;;;5.10;1.70;;;25.50;64.50;;;;;;4171625;28;20135;-55
2022/04/18 05:37:13;;;;;;;4.13;1.60;;;25.50;64.50;;;;;;4175437;28;20079;-50
2022/04/18 05:39:15;;;;;;;5.07;1.85;;;25.60;64.80;;;;;;4172995;28;20199;-58
2022/04/18 05:41:17;;;;;;;2.33;1.52;;;25.60;65.10;;;;;;4172876;28;20048;-50
2022/04/18 05:43:19;;;;;;;3.40;1.35;;;25.70;65.30;;;;;;4174719;28;20032;-53
2022/04/18 05:45:22;;;;;;;5.30;1.42;;;25.70;65.40;;;;;;4175669;28;20398;-54
2022/04/18 05:47:24;;;;;;;2.57;1.30;;;25.70;65.70;;;;;;4171926;28;20474;-53
2022/04/18 05:49:26;;;;;;;4.45;1.52;;;25.70;66.10;;;;;;4170037;28;20693;-55
2022/04/18 05:51:28;;;;;;;2.23;1.30;;;25.70;66.20;;;;;;4166828;28;20058;-57
2022/04/18 05:53:30;;;;;;;5.37;1.40;;;25.70;66.10;;;;;;4168377;28;21026;-56
2022/04/18 05:55:35;;;;;;;5.20;1.30;;;25.70;66.00;;;;;;4165043;28;20250;-60
2022/04/18 05:57:37;;;;;;;2.67;1.42;;;25.70;66.00;;;;;;4165494;28;20048;-59
2022/04/18 05:59:39;;;;;;;8.13;1.45;;;25.70;66.10;;;;;;4167882;28;20141;-58
2022/04/18 06:01:41;;;;;;;4.57;1.60;;;25.70;66.40;;;;;;4163529;28;20882;-59
2022/04/18 06:03:44;;;;;;;9.48;1.38;;;25.80;66.60;;;;;;4150089;28;20572;-59
2022/04/18 06:05:46;;;;;;;3.97;1.10;;;25.70;66.60;;;;;;4156007;28;20056;-59
2022/04/18 06:07:48;;;;;;;7.75;1.17;;;25.70;66.90;;;;;;4166277;28;20784;-59
2022/04/18 06:09:50;;;;;;;4.97;1.05;;;25.70;66.80;;;;;;4181040;28;20470;-54
2022/04/18 06:11:53;;;;;;;9.63;2.00;;;25.70;66.80;;;;;;4168670;28;20049;-59
2022/04/18 06:13:55;;;;;;;32.40;4.80;;;25.80;66.70;;;;;;4167243;28;20217;-54
2022/04/18 06:15:57;;;;;;;58.67;5.65;;;25.80;66.70;;;;;;4166929;28;20055;-58
2022/04/18 06:18:00;;;;;;;31.52;4.10;;;25.80;66.80;;;;;;4157694;28;20052;-58
2022/04/18 06:20:05;;;;;;;42.13;4.13;;;25.80;67.00;;;;;;4166026;28;20161;-58
2022/04/18 06:22:08;;;;;;;41.20;3.72;;;25.80;66.90;;;;;;4169363;28;20713;-56
2022/04/18 06:24:10;;;;;;;17.43;3.53;;;25.80;67.00;;;;;;4169915;28;20729;-59
2022/04/18 06:26:12;;;;;;;20.08;2.63;;;25.90;67.00;;;;;;4170399;28;20529;-59
2022/04/18 06:28:14;;;;;;;10.73;2.72;;;25.90;66.90;;;;;;4175894;28;20076;-57
2022/04/18 06:30:16;;;;;;;14.15;2.40;;;25.90;67.50;;;;;;4168447;28;20062;-56
2022/04/18 06:32:21;;;;;;;10.45;2.00;;;25.90;66.70;;;;;;4169516;28;20048;-58
2022/04/18 06:34:25;;;;;;;17.08;2.15;;;26.00;66.50;;;;;;4178880;28;20135;-55
2022/04/18 06:36:27;;;;;;;13.13;2.33;;;25.90;66.50;;;;;;4165711;28;20064;-57
2022/04/18 06:38:29;;;;;;;8.87;1.83;;;25.90;66.30;;;;;;4167650;28;20115;-56
2022/04/18 06:40:32;;;;;;;8.60;2.20;;;25.90;66.30;;;;;;4170520;28;20060;-57
2022/04/18 06:42:37;;;;;;;13.00;2.28;;;25.90;66.20;;;;;;4172222;28;20044;-58
2022/04/18 06:44:39;;;;;;;4.93;1.63;;;25.90;66.10;;;;;;4174486;28;20082;-58
2022/04/18 06:46:41;;;;;;;7.28;1.38;;;25.90;66.00;;;;;;4167322;28;20817;-55
2022/04/18 06:48:44;;;;;;;3.80;1.27;;;25.90;65.90;;;;;;4177718;28;20044;-57
2022/04/18 06:50:46;;;;;;;10.43;1.50;;;25.90;65.90;;;;;;4170753;28;20052;-58
2022/04/18 06:52:51;;;;;;;5.07;1.42;;;25.90;65.90;;;;;;4173117;28;20044;-58
2022/04/18 06:54:53;;;;;;;3.85;1.85;;;25.80;65.80;;;;;;4180319;28;20140;-57
2022/04/18 06:57:02;;;;;;;4.87;1.33;;;25.80;65.80;;;;;;4155837;28;20078;-57
2022/04/18 06:59:04;;;;;;;2.85;1.50;;;25.90;65.90;;;;;;4171285;28;20134;-58
2022/04/18 07:01:07;;;;;;;4.05;1.55;;;25.90;66.00;;;;;;4165633;28;20048;-57
2022/04/18 07:03:09;;;;;;;5.78;2.20;;;25.80;65.90;;;;;;4172073;28;20920;-56
2022/04/18 07:05:11;;;;;;;7.30;2.47;;;25.80;66.00;;;;;;4167674;28;20064;-57
2022/04/18 07:07:13;;;;;;;4.65;2.50;;;25.80;66.00;;;;;;4204074;28;20051;-53
2022/04/18 07:09:16;;;;;;;7.07;2.27;;;25.80;66.00;;;;;;4186150;28;20671;-57
2022/04/18 07:11:18;;;;;;;4.78;2.47;;;25.80;66.00;;;;;;4168140;28;20053;-54
2022/04/18 07:13:20;;;;;;;4.30;2.10;;;25.70;66.00;;;;;;4172419;28;20063;-56
2022/04/18 07:15:23;;;;;;;5.73;2.77;;;25.70;66.10;;;;;;4171144;28;20538;-54
2022/04/18 07:17:25;;;;;;;4.07;2.20;;;25.70;66.10;;;;;;4168438;28;20098;-58
2022/04/18 07:19:31;;;;;;;5.75;2.70;;;25.70;66.10;;;;;;4178203;28;20102;-56
2022/04/18 07:21:33;;;;;;;4.13;2.78;;;25.70;66.20;;;;;;4169516;28;20140;-57
2022/04/18 07:23:35;;;;;;;5.67;3.03;;;25.70;66.20;;;;;;4172492;28;20912;-58
2022/04/18 07:25:37;;;;;;;8.05;3.05;;;25.70;66.30;;;;;;4173549;28;20052;-57
2022/04/18 07:27:40;;;;;;;7.13;2.70;;;25.70;66.30;;;;;;4169253;28;20056;-53
2022/04/18 07:29:42;;;;;;;5.30;2.97;;;25.70;66.40;;;;;;4176998;28;20056;-57
2022/04/18 07:31:44;;;;;;;4.93;2.73;;;25.60;66.40;;;;;;4170526;28;20049;-56
2022/04/18 07:33:46;;;;;;;6.53;3.00;;;25.60;66.40;;;;;;4147229;28;20319;-55
2022/04/18 07:35:49;;;;;;;6.38;3.03;;;25.60;66.40;;;;;;4165727;28;20109;-57
2022/04/18 07:40:11;;;;;;;5.85;2.90;;;25.60;66.50;;;;;;4169353;28;20573;-56
2022/04/18 07:42:14;;;;;;;7.28;3.55;;;25.60;66.50;;;;;;4170170;28;20143;-58
2022/04/18 07:44:16;;;;;;;7.15;3.50;;;25.60;66.60;;;;;;4168576;28;20049;-56
2022/04/18 07:46:19;;;;;;;6.50;3.28;;;25.60;66.70;;;;;;4172658;28;20167;-58
2022/04/18 07:48:21;;;;;;;6.90;3.30;;;25.60;66.60;;;;;;4168619;28;20048;-59
2022/04/18 07:51:31;;;;;;;5.33;3.23;;;25.60;66.70;;;;;;4184540;28;20550;-57
2022/04/18 07:52:45;;;;;;;6.07;2.92;;;25.50;66.70;;;;;;4168549;28;20345;-58
2022/04/18 07:54:48;;;;;;;7.45;3.15;;;25.60;66.80;;;;;;4168627;28;20060;-56
2022/04/18 07:56:50;;;;;;;4.43;2.53;;;25.50;66.70;;;;;;4179204;28;20071;-56
2022/04/18 07:58:53;;;;;;;4.68;2.80;;;25.50;66.80;;;;;;4173058;28;20040;-57
2022/04/18 08:00:55;;;;;;;5.68;3.13;;;25.50;66.90;;;;;;4183496;28;20079;-58
2022/04/18 08:02:57;;;;;;;4.22;2.70;;;25.50;66.90;;;;;;4177465;28;20044;-57
2022/04/18 08:05:00;;;;;;;4.32;2.85;;;25.50;67.00;;;;;;4171308;28;20063;-57
2022/04/18 08:07:02;;;;;;;3.97;2.72;;;25.50;67.00;;;;;;4171751;28;20862;-57
2022/04/18 08:09:04;;;;;;;4.50;2.67;;;25.50;67.00;;;;;;4174357;28;20143;-56
2022/04/18 08:11:11;;;;;;;4.88;2.90;;;25.40;67.00;;;;;;4174690;28;20040;-59
2022/04/18 08:13:14;;;;;;;5.40;2.88;;;25.50;67.10;;;;;;4171924;28;20579;-54
2022/04/18 08:15:19;;;;;;;5.65;2.80;;;25.50;67.10;;;;;;4158070;28;20053;-58
2022/04/18 08:17:21;;;;;;;5.22;2.53;;;25.50;67.20;;;;;;4179610;28;20154;-56
2022/04/18 08:19:23;;;;;;;4.18;2.53;;;25.50;67.20;;;;;;4178606;28;20480;-56
2022/04/18 08:21:25;;;;;;;4.15;2.38;;;25.40;67.20;;;;;;4177442;28;20087;-57
2022/04/18 08:23:27;;;;;;;3.55;2.25;;;25.40;67.20;;;;;;4193608;28;20051;-57
2022/04/18 08:25:29;;;;;;;3.05;2.08;;;25.40;67.20;;;;;;4184025;28;20053;-57
2022/04/18 08:27:31;;;;;;;4.57;2.40;;;25.40;67.20;;;;;;4178932;28;20040;-57
2022/04/18 08:29:34;;;;;;;3.88;2.20;;;25.40;67.30;;;;;;4184828;28;20066;-52
2022/04/18 08:31:36;;;;;;;4.32;2.08;;;25.40;67.30;;;;;;4175452;28;20048;-57
2022/04/18 08:33:38;;;;;;;4.00;2.13;;;25.40;67.30;;;;;;4175940;28;20110;-55
2022/04/18 08:35:40;;;;;;;3.58;1.90;;;25.40;67.40;;;;;;4178706;28;20052;-56
2022/04/18 08:37:42;;;;;;;3.50;1.90;;;25.40;67.40;;;;;;4176736;28;20052;-54
2022/04/18 08:39:44;;;;;;;3.60;2.00;;;25.40;67.50;;;;;;4175775;28;20065;-55
2022/04/18 08:41:51;;;;;;;3.15;1.90;;;25.40;67.40;;;;;;4178140;28;20056;-55
2022/04/18 08:43:55;;;;;;;2.92;1.70;;;25.40;67.50;;;;;;4176291;28;20052;-57
2022/04/18 08:45:57;;;;;;;5.20;2.05;;;25.40;67.50;;;;;;4177677;28;20062;-57
2022/04/18 08:52:46;;;;;;;1.77;1.23;;;25.40;67.50;;;;;;4173216;28;20056;-55
2022/04/18 08:54:49;;;;;;;3.47;1.40;;;25.40;67.50;;;;;;4180858;28;20055;-55
2022/04/18 08:56:51;;;;;;;2.65;1.63;;;25.40;67.50;;;;;;4176652;28;20053;-54
2022/04/18 08:58:53;;;;;;;2.97;1.50;;;25.40;67.50;;;;;;4176674;28;20086;-56
2022/04/18 09:00:57;;;;;;;2.20;1.30;;;25.40;67.60;;;;;;4177056;28;20063;-56
2022/04/18 09:02:59;;;;;;;3.38;1.70;;;25.40;67.70;;;;;;4175818;28;20052;-57
2022/04/18 09:05:01;;;;;;;2.17;1.50;;;25.30;67.50;;;;;;4181608;28;20112;-56
2022/04/18 09:07:14;;;;;;;2.37;1.37;;;25.40;67.60;;;;;;4176367;28;20052;-55
2022/04/18 09:09:25;;;;;;;2.07;1.47;;;25.40;67.70;;;;;;4174885;28;20059;-56
2022/04/18 09:11:38;;;;;;;2.67;1.48;;;25.30;67.60;;;;;;4175867;28;20854;-55
2022/04/18 09:13:43;;;;;;;2.92;1.45;;;25.30;67.60;;;;;;4180892;28;20048;-56
2022/04/18 09:15:50;;;;;;;2.15;1.40;;;25.30;67.60;;;;;;4179301;28;20049;-56
2022/04/18 09:17:53;;;;;;;2.05;1.30;;;25.30;67.60;;;;;;4175222;28;20067;-56
2022/04/18 09:20:12;;;;;;;1.95;1.17;;;25.30;67.60;;;;;;4174015;28;20052;-57
2022/04/18 09:22:15;;;;;;;1.63;1.08;;;25.30;67.70;;;;;;4177463;28;20515;-56
2022/04/18 09:24:31;;;;;;;2.58;1.48;;;25.30;67.70;;;;;;4176566;28;20530;-58
2022/04/18 09:26:34;;;;;;;2.67;1.08;;;25.30;67.70;;;;;;4169946;28;20866;-56
2022/04/18 09:28:41;;;;;;;1.92;1.20;;;25.30;67.80;;;;;;4178215;28;20967;-56
2022/04/18 09:30:43;;;;;;;2.10;1.13;;;25.30;67.70;;;;;;4179023;28;20543;-57
2022/04/18 09:33:06;;;;;;;1.15;0.98;;;25.30;67.70;;;;;;4176673;28;20106;-56
2022/04/18 09:35:09;;;;;;;2.40;1.42;;;25.30;67.70;;;;;;4178413;28;20056;-54
2022/04/18 09:37:19;;;;;;;2.20;1.45;;;25.20;67.70;;;;;;4181962;28;20098;-57
2022/04/18 09:39:24;;;;;;;2.80;1.40;;;25.20;67.80;;;;;;4184408;28;20105;-57
2022/04/18 09:41:29;;;;;;;1.52;1.17;;;25.20;67.70;;;;;;4182116;28;20052;-55
2022/04/18 09:43:45;;;;;;;1.50;1.13;;;25.20;67.80;;;;;;4182292;28;20040;-55
2022/04/18 09:45:47;;;;;;;1.83;1.30;;;25.20;67.80;;;;;;4191112;28;20063;-57
2022/04/18 09:47:58;;;;;;;2.60;1.58;;;25.20;67.90;;;;;;4186232;28;20054;-56
2022/04/18 09:50:59;;;;;;;1.33;1.10;;;25.20;67.90;;;;;;4194844;28;20036;-59
2022/04/18 09:52:39;;;;;;;1.83;1.08;;;25.20;68.00;;;;;;4195571;28;20537;-54
2022/04/18 09:55:26;;;;;;;1.38;1.10;;;25.20;67.90;;;;;;4187287;28;20530;-57
2022/04/18 09:57:47;;;;;;;1.58;1.02;;;25.20;68.00;;;;;;4184682;28;20042;-57
2022/04/18 09:59:53;;;;;;;1.40;1.13;;;25.20;68.00;;;;;;4178632;28;20052;-57
2022/04/18 10:01:55;;;;;;;1.42;1.20;;;25.20;68.00;;;;;;4180539;28;20131;-57
2022/04/18 10:03:58;;;;;;;1.50;1.02;;;25.10;68.00;;;;;;4181733;28;20049;-55
2022/04/18 10:06:01;;;;;;;1.58;1.10;;;25.10;68.00;;;;;;4179528;28;20937;-51
2022/04/18 10:08:04;;;;;;;1.88;1.13;;;25.10;68.00;;;;;;4180782;28;20083;-53
2022/04/18 10:10:06;;;;;;;;;;;25.10;68.10;;;;;;4180975;28;20155;-55
2022/04/18 10:12:10;;;;;;;1.40;1.08;;;25.10;68.10;;;;;;4189643;28;20434;-55
2022/04/18 10:14:12;;;;;;;1.52;0.95;;;25.10;68.10;;;;;;4177687;28;20861;-54
2022/04/18 10:16:16;;;;;;;2.35;1.10;;;25.10;68.10;;;;;;4175516;28;20369;-56
2022/04/18 10:18:18;;;;;;;2.00;1.42;;;25.10;68.20;;;;;;4179137;28;20995;-55
2022/04/18 10:20:42;;;;;;;1.48;1.00;;;25.10;68.20;;;;;;4175628;28;21011;-58
2022/04/18 10:22:52;;;;;;;1.38;1.20;;;25.10;68.20;;;;;;4174820;28;20401;-55
2022/04/18 10:25:06;;;;;;;2.28;1.13;;;25.10;68.20;;;;;;4173003;28;20059;-58
2022/04/18 10:27:46;;;;;;;1.33;1.00;;;25.10;68.30;;;;;;4179219;28;20040;-55
2022/04/18 10:29:57;;;;;;;1.40;1.00;;;25.10;68.30;;;;;;4168482;28;20060;-57
2022/04/18 10:32:04;;;;;;;1.05;0.88;;;25.10;68.40;;;;;;4173533;28;20052;-56
2022/04/18 10:34:07;;;;;;;1.77;1.20;;;25.10;68.30;;;;;;4174578;28;20067;-56
2022/04/18 10:36:09;;;;;;;;;;;25.10;68.40;;;;;;4174469;28;20541;-57
2022/04/18 10:38:12;;;;;;;1.17;1.08;;;25.00;68.40;;;;;;4176661;28;19920;-55
2022/04/18 10:40:18;;;;;;;1.27;0.82;;;25.00;68.40;;;;;;4175610;28;20181;-55
2022/04/18 10:42:27;;;;;;;1.80;1.27;;;25.00;68.40;;;;;;4173015;28;20443;-58
2022/04/18 10:44:38;;;;;;;1.77;1.20;;;25.00;68.30;;;;;;4175260;28;20052;-56
2022/04/18 10:46:42;;;;;;;1.63;1.05;;;25.00;68.30;;;;;;4174422;28;20497;-51
2022/04/18 10:48:53;;;;;;;1.52;1.25;;;25.00;68.30;;;;;;4173593;28;20068;-59
2022/04/18 10:50:56;;;;;;;1.17;1.08;;;25.00;68.40;;;;;;4178511;28;20162;-58
2022/04/18 10:53:36;;;;;;;2.17;1.08;;;25.00;68.40;;;;;;4179264;28;20056;-53
2022/04/18 10:55:58;;;;;;;1.33;1.17;;;25.00;68.40;;;;;;4187426;28;20048;-57
2022/04/18 10:58:22;;;;;;;1.90;1.02;;;25.00;68.50;;;;;;4188293;28;20048;-55
2022/04/18 11:00:48;;;;;;;1.33;1.00;;;24.90;68.40;;;;;;4171981;28;20056;-56